Coniston, Canada
Current Conditions -  °F | °C
As of 2:00 AM on Saturday 01 Nov 2014 (Local Time) from CYSB Reporting Station
Broken Clouds Broken Clouds  
Wind Chill:   Ceiling: 1800
Heat Index: 23°   Visibility: 15mi
Dew Point: 19°   Wind: 17mph
Humidity: 86%   Direction: 10°N
Pressure: 30.26"   Gusts: NA
Location:  46.49°N, 80.85°W
Report Text: CYSB 010600Z 01015KT 15SM BKN018 M05/M07 A3026 RMK SC5 SLP268
Loading
Personal Weather Stations






























Interactive Weather Map
Tropical Storm Tracking
New forecast layout! Learn more

10-Day Weather Forecast

Advertisements
Track Severe Weather on mobile